Terminal Aerodrome Forecast
Issued by NWS

Home | Current Version | Previous Version | Text Only | Print | Product List | Glossary On
Versions: 1 2 3 4 5 6 7 8 9 10 11 12
000
FTUS42 TJSJ 311729
TAFJPS
TAF
TJPS 311729Z 3118/0118 12010G15KT P6SM FEW025
     FM312330 09007KT P6SM FEW030 SCT060
     FM011400 14010G15KT P6SM FEW030 SCT050
      AMD NOT SKED TIL 010300=

USA.gov is the U.S. government's official web portal to all federal, state and local government web resources and services.